sensor_id;sensor_type;location;lat;lon;timestamp;pressure;altitude;pressure_sealevel;temperature;humidity
76195;BME280;64964;48.694;21.206;2024-03-25T00:00:58;96736.59;;;4.79;59.40
76195;BME280;64964;48.694;21.206;2024-03-25T00:03:24;96749.84;;;4.85;59.44
76195;BME280;64964;48.694;21.206;2024-03-25T00:05:49;96738.88;;;4.82;59.31
76195;BME280;64964;48.694;21.206;2024-03-25T00:08:15;96658.56;;;4.25;59.32
76195;BME280;64964;48.694;21.206;2024-03-25T00:10:40;96737.41;;;4.71;59.35
76195;BME280;64964;48.694;21.206;2024-03-25T00:13:06;96754.91;;;4.79;59.46
76195;BME280;64964;48.694;21.206;2024-03-25T00:15:31;96749.03;;;4.77;59.33
76195;BME280;64964;48.694;21.206;2024-03-25T00:17:56;96733.47;;;4.67;59.33
76195;BME280;64964;48.694;21.206;2024-03-25T00:20:22;96740.69;;;4.73;59.60
76195;BME280;64964;48.694;21.206;2024-03-25T00:22:47;96738.22;;;4.71;59.07
76195;BME280;64964;48.694;21.206;2024-03-25T00:25:12;96736.41;;;4.64;58.78
76195;BME280;64964;48.694;21.206;2024-03-25T00:27:38;96738.56;;;4.68;59.29
76195;BME280;64964;48.694;21.206;2024-03-25T00:30:04;96735.09;;;4.68;59.35
76195;BME280;64964;48.694;21.206;2024-03-25T00:32:30;96739.38;;;4.69;59.20
76195;BME280;64964;48.694;21.206;2024-03-25T00:34:55;96735.94;;;4.68;59.17
76195;BME280;64964;48.694;21.206;2024-03-25T00:37:21;96735.09;;;4.68;59.26
76195;BME280;64964;48.694;21.206;2024-03-25T00:39:46;96735.44;;;4.65;58.90
76195;BME280;64964;48.694;21.206;2024-03-25T00:42:12;96729.72;;;4.61;58.84
76195;BME280;64964;48.694;21.206;2024-03-25T00:44:37;96740.69;;;4.65;58.63
76195;BME280;64964;48.694;21.206;2024-03-25T00:47:03;96736.41;;;4.64;58.81
76195;BME280;64964;48.694;21.206;2024-03-25T00:49:28;96743.44;;;4.63;58.75
76195;BME280;64964;48.694;21.206;2024-03-25T00:51:54;96737.41;;;4.63;58.40
76195;BME280;64964;48.694;21.206;2024-03-25T00:54:19;96721.88;;;4.53;58.51
76195;BME280;64964;48.694;21.206;2024-03-25T00:56:45;96733.47;;;4.59;58.42
76195;BME280;64964;48.694;21.206;2024-03-25T00:59:12;96741.31;;;4.59;58.46
76195;BME280;64964;48.694;21.206;2024-03-25T01:01:37;96738.72;;;4.59;58.40
76195;BME280;64964;48.694;21.206;2024-03-25T01:04:02;96737.88;;;4.58;58.40
76195;BME280;64964;48.694;21.206;2024-03-25T01:06:28;96733.81;;;4.56;58.45
76195;BME280;64964;48.694;21.206;2024-03-25T01:08:53;96736.25;;;4.57;58.38
76195;BME280;64964;48.694;21.206;2024-03-25T01:11:19;96736.56;;;4.54;58.58
76195;BME280;64964;48.694;21.206;2024-03-25T01:13:44;96741.16;;;4.52;58.48
76195;BME280;64964;48.694;21.206;2024-03-25T01:16:10;96722.84;;;4.36;58.64
76195;BME280;64964;48.694;21.206;2024-03-25T01:18:35;96735.13;;;4.43;58.92
76195;BME280;64964;48.694;21.206;2024-03-25T01:21:01;96738.03;;;4.40;58.79
76195;BME280;64964;48.694;21.206;2024-03-25T01:23:26;96737.22;;;4.40;58.87
76195;BME280;64964;48.694;21.206;2024-03-25T01:25:52;96737.03;;;4.33;58.71
76195;BME280;64964;48.694;21.206;2024-03-25T01:28:18;96732.31;;;4.37;58.78
76195;BME280;64964;48.694;21.206;2024-03-25T01:30:43;96728.38;;;4.33;58.88
76195;BME280;64964;48.694;21.206;2024-03-25T01:33:09;96719.41;;;4.35;58.86
76195;BME280;64964;48.694;21.206;2024-03-25T01:35:34;96720.53;;;4.33;58.82
76195;BME280;64964;48.694;21.206;2024-03-25T01:37:59;96720.53;;;4.33;58.91
76195;BME280;64964;48.694;21.206;2024-03-25T01:40:25;96729.38;;;4.32;58.79
76195;BME280;64964;48.694;21.206;2024-03-25T01:43:01;96725.28;;;4.29;59.23
76195;BME280;64964;48.694;21.206;2024-03-25T01:45:32;96678.81;;;3.98;59.14
76195;BME280;64964;48.694;21.206;2024-03-25T01:47:59;96718.91;;;4.23;58.87
76195;BME280;64964;48.694;21.206;2024-03-25T01:50:27;96720.03;;;4.21;59.01
76195;BME280;64964;48.694;21.206;2024-03-25T01:52:53;96711.50;;;4.11;59.26
76195;BME280;64964;48.694;21.206;2024-03-25T01:55:21;96715.75;;;4.12;59.04
76195;BME280;64964;48.694;21.206;2024-03-25T01:57:48;96713.63;;;4.07;59.20
76195;BME280;64964;48.694;21.206;2024-03-25T02:00:15;96721.78;;;4.04;59.37
76195;BME280;64964;48.694;21.206;2024-03-25T02:02:42;96719.66;;;3.99;59.33
76195;BME280;64964;48.694;21.206;2024-03-25T02:05:09;96704.13;;;3.90;59.31
76195;BME280;64964;48.694;21.206;2024-03-25T02:07:36;96719.31;;;3.94;59.42
76195;BME280;64964;48.694;21.206;2024-03-25T02:10:07;96708.03;;;3.94;59.53
76195;BME280;64964;48.694;21.206;2024-03-25T02:12:35;96717.19;;;3.90;59.52
76195;BME280;64964;48.694;21.206;2024-03-25T02:15:01;96717.66;;;3.85;59.61
76195;BME280;64964;48.694;21.206;2024-03-25T02:17:26;96717.97;;;3.82;59.80
76195;BME280;64964;48.694;21.206;2024-03-25T02:19:52;96718.97;;;3.81;59.83
76195;BME280;64964;48.694;21.206;2024-03-25T02:22:17;96721.72;;;3.80;59.97
76195;BME280;64964;48.694;21.206;2024-03-25T02:24:46;96716.66;;;3.78;60.10
76195;BME280;64964;48.694;21.206;2024-03-25T02:27:14;96711.59;;;3.77;59.85
76195;BME280;64964;48.694;21.206;2024-03-25T02:29:41;96711.91;;;3.73;59.84
76195;BME280;64964;48.694;21.206;2024-03-25T02:32:10;96703.06;;;3.66;60.00
76195;BME280;64964;48.694;21.206;2024-03-25T02:34:45;96659.69;;;3.39;60.28
76195;BME280;64964;48.694;21.206;2024-03-25T02:37:11;96713.50;;;3.66;59.90
76195;BME280;64964;48.694;21.206;2024-03-25T02:39:37;96712.53;;;3.67;60.02
76195;BME280;64964;48.694;21.206;2024-03-25T02:42:03;96711.06;;;3.65;60.30
76195;BME280;64964;48.694;21.206;2024-03-25T02:44:32;96708.59;;;3.63;60.27
76195;BME280;64964;48.694;21.206;2024-03-25T02:46:58;96711.69;;;3.59;60.20
76195;BME280;64964;48.694;21.206;2024-03-25T02:49:24;96706.63;;;3.57;60.37
76195;BME280;64964;48.694;21.206;2024-03-25T02:51:49;96689.38;;;3.38;59.89
76195;BME280;64964;48.694;21.206;2024-03-25T02:54:14;96711.81;;;3.49;60.06
76195;BME280;64964;48.694;21.206;2024-03-25T02:56:40;96686.59;;;3.32;60.00
76195;BME280;64964;48.694;21.206;2024-03-25T02:59:06;96718.53;;;3.52;59.96
76195;BME280;64964;48.694;21.206;2024-03-25T03:01:32;96714.13;;;3.52;60.16
76195;BME280;64964;48.694;21.206;2024-03-25T03:03:57;96719.47;;;3.50;60.21
76195;BME280;64964;48.694;21.206;2024-03-25T03:06:22;96716.06;;;3.50;59.90
76195;BME280;64964;48.694;21.206;2024-03-25T03:08:48;96722.09;;;3.50;59.92
76195;BME280;64964;48.694;21.206;2024-03-25T03:11:13;96719.94;;;3.46;60.16
76195;BME280;64964;48.694;21.206;2024-03-25T03:13:38;96731.72;;;3.50;60.06
76195;BME280;64964;48.694;21.206;2024-03-25T03:16:04;96733.69;;;3.48;60.28
76195;BME280;64964;48.694;21.206;2024-03-25T03:18:30;96720.59;;;3.40;60.19
76195;BME280;64964;48.694;21.206;2024-03-25T03:20:55;96738.75;;;3.49;60.46
76195;BME280;64964;48.694;21.206;2024-03-25T03:23:22;96723.84;;;3.42;60.43
76195;BME280;64964;48.694;21.206;2024-03-25T03:25:47;96738.41;;;3.44;60.60
76195;BME280;64964;48.694;21.206;2024-03-25T03:28:13;96738.41;;;3.44;60.77
76195;BME280;64964;48.694;21.206;2024-03-25T03:30:40;96725.94;;;3.38;60.85
76195;BME280;64964;48.694;21.206;2024-03-25T03:33:05;96725.00;;;3.39;61.18
76195;BME280;64964;48.694;21.206;2024-03-25T03:35:33;96733.66;;;3.40;60.83
76195;BME280;64964;48.694;21.206;2024-03-25T03:37:58;96730.06;;;3.41;60.62
76195;BME280;64964;48.694;21.206;2024-03-25T03:40:23;96731.69;;;3.42;60.23
76195;BME280;64964;48.694;21.206;2024-03-25T03:42:49;96732.38;;;3.44;60.34
76195;BME280;64964;48.694;21.206;2024-03-25T03:45:14;96725.47;;;3.35;60.53
76195;BME280;64964;48.694;21.206;2024-03-25T03:47:39;96739.69;;;3.40;60.41
76195;BME280;64964;48.694;21.206;2024-03-25T03:50:06;96738.38;;;3.36;60.55
76195;BME280;64964;48.694;21.206;2024-03-25T03:52:32;96741.16;;;3.35;60.61
76195;BME280;64964;48.694;21.206;2024-03-25T03:54:58;96740.28;;;3.34;60.56
76195;BME280;64964;48.694;21.206;2024-03-25T03:57:23;96744.88;;;3.32;60.71
76195;BME280;64964;48.694;21.206;2024-03-25T03:59:48;96752.72;;;3.32;60.54
76195;BME280;64964;48.694;21.206;2024-03-25T04:02:14;96737.66;;;3.26;60.32
76195;BME280;64964;48.694;21.206;2024-03-25T04:04:39;96743.72;;;3.27;60.46
76195;BME280;64964;48.694;21.206;2024-03-25T04:07:05;96745.63;;;3.24;60.25
76195;BME280;64964;48.694;21.206;2024-03-25T04:09:30;96750.34;;;3.21;60.30
76195;BME280;64964;48.694;21.206;2024-03-25T04:11:56;96744.25;;;3.12;60.37
76195;BME280;64964;48.694;21.206;2024-03-25T04:14:21;96745.41;;;3.10;60.36
76195;BME280;64964;48.694;21.206;2024-03-25T04:16:46;96752.38;;;3.09;60.44
76195;BME280;64964;48.694;21.206;2024-03-25T04:19:12;96755.84;;;3.10;60.61
76195;BME280;64964;48.694;21.206;2024-03-25T04:21:38;96747.63;;;3.05;60.67
76195;BME280;64964;48.694;21.206;2024-03-25T04:24:04;96742.75;;;3.02;60.84
76195;BME280;64964;48.694;21.206;2024-03-25T04:26:31;96748.25;;;2.98;60.72
76195;BME280;64964;48.694;21.206;2024-03-25T04:28:56;96754.59;;;2.96;61.00
76195;BME280;64964;48.694;21.206;2024-03-25T04:31:22;96726.59;;;2.80;60.59
76195;BME280;64964;48.694;21.206;2024-03-25T04:33:47;96734.28;;;2.82;60.91
76195;BME280;64964;48.694;21.206;2024-03-25T04:36:13;96745.06;;;2.87;61.01
76195;BME280;64964;48.694;21.206;2024-03-25T04:38:39;96750.28;;;2.87;61.19
76195;BME280;64964;48.694;21.206;2024-03-25T04:41:05;96752.72;;;2.88;60.93
76195;BME280;64964;48.694;21.206;2024-03-25T04:43:30;96747.97;;;2.84;61.05
76195;BME280;64964;48.694;21.206;2024-03-25T04:45:55;96754.69;;;2.86;61.13
76195;BME280;64964;48.694;21.206;2024-03-25T04:48:21;96746.63;;;2.80;61.00
76195;BME280;64964;48.694;21.206;2024-03-25T04:50:46;96754.84;;;2.85;61.06
76195;BME280;64964;48.694;21.206;2024-03-25T04:53:12;96760.06;;;2.85;61.07
76195;BME280;64964;48.694;21.206;2024-03-25T04:55:37;96756.50;;;2.86;61.39
76195;BME280;64964;48.694;21.206;2024-03-25T04:58:03;96752.69;;;2.80;61.28
76195;BME280;64964;48.694;21.206;2024-03-25T05:00:28;96769.06;;;2.90;61.27
76195;BME280;64964;48.694;21.206;2024-03-25T05:02:53;96771.41;;;2.93;61.26
76195;BME280;64964;48.694;21.206;2024-03-25T05:05:19;96770.41;;;2.94;61.34
76195;BME280;64964;48.694;21.206;2024-03-25T05:07:44;96781.38;;;2.98;61.18
76195;BME280;64964;48.694;21.206;2024-03-25T05:10:09;96779.88;;;2.95;61.35
76195;BME280;64964;48.694;21.206;2024-03-25T05:12:35;96770.88;;;2.90;61.49
76195;BME280;64964;48.694;21.206;2024-03-25T05:15:00;96777.13;;;2.97;61.49
76195;BME280;64964;48.694;21.206;2024-03-25T05:17:26;96777.78;;;2.99;61.50
76195;BME280;64964;48.694;21.206;2024-03-25T05:19:51;96771.28;;;3.03;61.34
76195;BME280;64964;48.694;21.206;2024-03-25T05:22:17;96771.94;;;3.05;61.43
76195;BME280;64964;48.694;21.206;2024-03-25T05:24:42;96769.84;;;3.09;61.38
76195;BME280;64964;48.694;21.206;2024-03-25T05:27:07;96779.03;;;3.13;61.43
76195;BME280;64964;48.694;21.206;2024-03-25T05:29:33;96771.50;;;3.10;61.54
76195;BME280;64964;48.694;21.206;2024-03-25T05:32:00;96774.66;;;3.21;61.65
76195;BME280;64964;48.694;21.206;2024-03-25T05:34:26;96774.38;;;3.24;61.53
76195;BME280;64964;48.694;21.206;2024-03-25T05:36:52;96771.97;;;3.31;61.40
76195;BME280;64964;48.694;21.206;2024-03-25T05:39:17;96769.19;;;3.33;61.63
76195;BME280;64964;48.694;21.206;2024-03-25T05:41:43;96786.88;;;3.39;61.61
76195;BME280;64964;48.694;21.206;2024-03-25T05:44:09;96779.34;;;3.36;61.86
76195;BME280;64964;48.694;21.206;2024-03-25T05:46:34;96786.72;;;3.40;61.75
76195;BME280;64964;48.694;21.206;2024-03-25T05:49:06;96793.78;;;3.48;62.33
76195;BME280;64964;48.694;21.206;2024-03-25T05:51:31;96796.56;;;3.55;62.34
76195;BME280;64964;48.694;21.206;2024-03-25T05:54:00;96776.66;;;3.54;61.62
76195;BME280;64964;48.694;21.206;2024-03-25T05:56:26;96787.50;;;3.67;61.56
76195;BME280;64964;48.694;21.206;2024-03-25T05:58:56;96790.63;;;3.70;61.65
76195;BME280;64964;48.694;21.206;2024-03-25T06:01:22;96800.00;;;3.81;61.68
76195;BME280;64964;48.694;21.206;2024-03-25T06:03:47;96799.06;;;3.90;61.96
76195;BME280;64964;48.694;21.206;2024-03-25T06:06:13;96797.78;;;4.03;62.01
76195;BME280;64964;48.694;21.206;2024-03-25T06:08:38;96804.22;;;4.24;62.35
76195;BME280;64964;48.694;21.206;2024-03-25T06:11:04;96801.03;;;4.63;62.51
76195;BME280;64964;48.694;21.206;2024-03-25T06:13:29;96808.91;;;5.12;62.58
76195;BME280;64964;48.694;21.206;2024-03-25T06:15:55;96806.84;;;5.71;62.59
76195;BME280;64964;48.694;21.206;2024-03-25T06:18:20;96809.94;;;6.31;62.10
76195;BME280;64964;48.694;21.206;2024-03-25T06:20:46;96809.81;;;7.01;61.36
76195;BME280;64964;48.694;21.206;2024-03-25T06:23:27;96820.56;;;7.67;57.50
76195;BME280;64964;48.694;21.206;2024-03-25T06:25:55;96802.22;;;8.33;58.54
76195;BME280;64964;48.694;21.206;2024-03-25T06:28:21;96814.34;;;9.06;57.66
76195;BME280;64964;48.694;21.206;2024-03-25T06:30:47;96806.34;;;9.70;56.46
76195;BME280;64964;48.694;21.206;2024-03-25T06:33:31;96810.81;;;10.46;54.76
76195;BME280;64964;48.694;21.206;2024-03-25T06:36:15;96805.88;;;11.04;53.13
76195;BME280;64964;48.694;21.206;2024-03-25T06:38:41;96809.97;;;11.60;52.32
76195;BME280;64964;48.694;21.206;2024-03-25T06:41:06;96808.47;;;12.17;50.87
76195;BME280;64964;48.694;21.206;2024-03-25T06:43:31;96817.03;;;12.64;50.03
76195;BME280;64964;48.694;21.206;2024-03-25T06:45:57;96800.81;;;13.17;49.57
76195;BME280;64964;48.694;21.206;2024-03-25T06:48:23;96809.13;;;13.77;47.08
76195;BME280;64964;48.694;21.206;2024-03-25T06:50:58;96809.75;;;13.98;44.22
76195;BME280;64964;48.694;21.206;2024-03-25T06:53:24;96807.66;;;14.00;45.12
76195;BME280;64964;48.694;21.206;2024-03-25T06:55:57;96820.31;;;14.41;43.70
76195;BME280;64964;48.694;21.206;2024-03-25T06:58:25;96816.53;;;14.67;43.40
76195;BME280;64964;48.694;21.206;2024-03-25T07:00:51;96818.78;;;15.12;43.65
76195;BME280;64964;48.694;21.206;2024-03-25T07:03:17;96811.59;;;15.54;42.85
76195;BME280;64964;48.694;21.206;2024-03-25T07:05:51;96813.59;;;15.82;40.43
76195;BME280;64964;48.694;21.206;2024-03-25T07:08:20;96826.81;;;15.65;40.94
76195;BME280;64964;48.694;21.206;2024-03-25T07:10:46;96825.25;;;15.58;40.86
76195;BME280;64964;48.694;21.206;2024-03-25T07:13:12;96820.06;;;15.51;40.47
76195;BME280;64964;48.694;21.206;2024-03-25T07:15:38;96822.59;;;15.58;40.34
76195;BME280;64964;48.694;21.206;2024-03-25T07:18:03;96826.81;;;15.65;39.46
76195;BME280;64964;48.694;21.206;2024-03-25T07:20:29;96831.75;;;15.62;40.04
76195;BME280;64964;48.694;21.206;2024-03-25T07:22:55;96800.34;;;15.52;39.65
76195;BME280;64964;48.694;21.206;2024-03-25T07:25:24;96834.47;;;15.74;40.00
76195;BME280;64964;48.694;21.206;2024-03-25T07:27:49;96825.31;;;15.81;39.68
76195;BME280;64964;48.694;21.206;2024-03-25T07:30:15;96839.44;;;16.29;38.53
76195;BME280;64964;48.694;21.206;2024-03-25T07:32:41;96845.38;;;16.59;38.38
76195;BME280;64964;48.694;21.206;2024-03-25T07:35:07;96848.19;;;16.76;37.66
76195;BME280;64964;48.694;21.206;2024-03-25T07:37:34;96840.56;;;16.44;36.58
76195;BME280;64964;48.694;21.206;2024-03-25T07:40:00;96852.19;;;16.03;37.63
76195;BME280;64964;48.694;21.206;2024-03-25T07:42:25;96854.91;;;15.61;38.08
76195;BME280;64964;48.694;21.206;2024-03-25T07:44:51;96858.34;;;15.08;38.62
76195;BME280;64964;48.694;21.206;2024-03-25T07:47:16;96862.03;;;14.40;39.92
76195;BME280;64964;48.694;21.206;2024-03-25T07:49:41;96872.91;;;13.70;40.95
76195;BME280;64964;48.694;21.206;2024-03-25T07:52:07;96860.91;;;13.05;42.36
76195;BME280;64964;48.694;21.206;2024-03-25T07:54:32;96862.00;;;12.39;43.26
76195;BME280;64964;48.694;21.206;2024-03-25T07:56:58;96864.53;;;11.81;44.50
76195;BME280;64964;48.694;21.206;2024-03-25T07:59:23;96866.78;;;11.37;45.49
76195;BME280;64964;48.694;21.206;2024-03-25T08:01:48;96877.28;;;11.04;46.37
76195;BME280;64964;48.694;21.206;2024-03-25T08:04:14;96875.94;;;10.67;47.56
76195;BME280;64964;48.694;21.206;2024-03-25T08:06:39;96866.00;;;10.28;48.73
76195;BME280;64964;48.694;21.206;2024-03-25T08:09:05;96870.50;;;9.99;49.66
76195;BME280;64964;48.694;21.206;2024-03-25T08:11:33;96858.13;;;9.71;50.33
76195;BME280;64964;48.694;21.206;2024-03-25T08:13:58;96870.44;;;9.64;50.95
76195;BME280;64964;48.694;21.206;2024-03-25T08:16:24;96861.81;;;9.49;51.47
76195;BME280;64964;48.694;21.206;2024-03-25T08:18:49;96860.69;;;9.37;51.43
76195;BME280;64964;48.694;21.206;2024-03-25T08:21:16;96850.88;;;9.31;52.10
76195;BME280;64964;48.694;21.206;2024-03-25T08:23:41;96860.19;;;9.27;51.96
76195;BME280;64964;48.694;21.206;2024-03-25T08:26:07;96856.97;;;9.31;52.42
76195;BME280;64964;48.694;21.206;2024-03-25T08:28:33;96846.25;;;9.33;52.58
76195;BME280;64964;48.694;21.206;2024-03-25T08:30:59;96848.78;;;9.47;52.02
76195;BME280;64964;48.694;21.206;2024-03-25T08:33:24;96854.88;;;9.48;53.10
76195;BME280;64964;48.694;21.206;2024-03-25T08:35:49;96856.09;;;9.45;53.05
76195;BME280;64964;48.694;21.206;2024-03-25T08:38:15;96844.88;;;9.37;52.71
76195;BME280;64964;48.694;21.206;2024-03-25T08:40:41;96831.00;;;9.28;53.08
76195;BME280;64964;48.694;21.206;2024-03-25T08:43:06;96857.22;;;9.36;52.55
76195;BME280;64964;48.694;21.206;2024-03-25T08:45:32;96856.69;;;9.47;51.77
76195;BME280;64964;48.694;21.206;2024-03-25T08:47:57;96847.69;;;9.63;51.20
76195;BME280;64964;48.694;21.206;2024-03-25T08:50:23;96859.81;;;9.86;50.60
76195;BME280;64964;48.694;21.206;2024-03-25T08:52:49;96851.16;;;9.92;49.45
76195;BME280;64964;48.694;21.206;2024-03-25T08:55:14;96849.09;;;9.87;49.88
76195;BME280;64964;48.694;21.206;2024-03-25T08:57:39;96859.94;;;9.99;49.34
76195;BME280;64964;48.694;21.206;2024-03-25T09:00:05;96858.78;;;10.08;49.75
76195;BME280;64964;48.694;21.206;2024-03-25T09:02:38;96862.38;;;10.29;49.35
76195;BME280;64964;48.694;21.206;2024-03-25T09:05:04;96848.56;;;10.33;48.35
76195;BME280;64964;48.694;21.206;2024-03-25T09:07:33;96863.47;;;10.47;48.49
76195;BME280;64964;48.694;21.206;2024-03-25T09:09:59;96844.59;;;10.51;47.77
76195;BME280;64964;48.694;21.206;2024-03-25T09:12:43;96856.00;;;10.64;47.32
76195;BME280;64964;48.694;21.206;2024-03-25T09:15:08;96854.00;;;10.73;46.91
76195;BME280;64964;48.694;21.206;2024-03-25T09:17:35;96831.22;;;10.72;47.07
76195;BME280;64964;48.694;21.206;2024-03-25T09:20:01;96850.63;;;10.99;47.27
76195;BME280;64964;48.694;21.206;2024-03-25T09:22:29;96850.47;;;11.20;46.47
76195;BME280;64964;48.694;21.206;2024-03-25T09:24:54;96852.91;;;11.22;45.92
76195;BME280;64964;48.694;21.206;2024-03-25T09:27:20;96851.09;;;11.29;46.17
76195;BME280;64964;48.694;21.206;2024-03-25T09:29:45;96856.59;;;11.34;45.60
76195;BME280;64964;48.694;21.206;2024-03-25T09:32:11;96831.75;;;11.22;45.84
76195;BME280;64964;48.694;21.206;2024-03-25T09:34:36;96856.59;;;11.54;45.66
76195;BME280;64964;48.694;21.206;2024-03-25T09:37:02;96853.34;;;11.72;43.80
76195;BME280;64964;48.694;21.206;2024-03-25T09:39:27;96855.16;;;11.65;43.97
76195;BME280;64964;48.694;21.206;2024-03-25T09:41:55;96839.06;;;11.53;44.35
76195;BME280;64964;48.694;21.206;2024-03-25T09:44:25;96850.28;;;11.68;44.96
76195;BME280;64964;48.694;21.206;2024-03-25T09:46:51;96852.31;;;11.66;44.35
76195;BME280;64964;48.694;21.206;2024-03-25T09:49:17;96839.09;;;11.46;44.10
76195;BME280;64964;48.694;21.206;2024-03-25T09:51:43;96849.25;;;11.23;44.17
76195;BME280;64964;48.694;21.206;2024-03-25T09:54:08;96856.56;;;11.14;44.88
76195;BME280;64964;48.694;21.206;2024-03-25T09:56:34;96857.19;;;11.16;44.72
76195;BME280;64964;48.694;21.206;2024-03-25T09:59:00;96811.09;;;10.78;45.05
76195;BME280;64964;48.694;21.206;2024-03-25T10:01:26;96858.75;;;10.97;45.19
76195;BME280;64964;48.694;21.206;2024-03-25T10:03:51;96850.78;;;10.84;45.52
76195;BME280;64964;48.694;21.206;2024-03-25T10:06:17;96859.69;;;10.70;45.59
76195;BME280;64964;48.694;21.206;2024-03-25T10:08:42;96854.00;;;10.66;46.08
76195;BME280;64964;48.694;21.206;2024-03-25T10:11:07;96854.59;;;10.68;46.51
76195;BME280;64964;48.694;21.206;2024-03-25T10:13:33;96849.31;;;10.68;46.11
76195;BME280;64964;48.694;21.206;2024-03-25T10:15:58;96846.25;;;10.65;45.93
76195;BME280;64964;48.694;21.206;2024-03-25T10:18:24;96849.09;;;10.63;46.06
76195;BME280;64964;48.694;21.206;2024-03-25T10:20:53;96847.66;;;10.61;46.12
76195;BME280;64964;48.694;21.206;2024-03-25T10:23:24;96847.28;;;10.64;46.01
76195;BME280;64964;48.694;21.206;2024-03-25T10:25:53;96849.69;;;10.65;45.92
76195;BME280;64964;48.694;21.206;2024-03-25T10:28:18;96845.44;;;10.58;45.97
76195;BME280;64964;48.694;21.206;2024-03-25T10:30:44;96849.06;;;10.50;46.55
76195;BME280;64964;48.694;21.206;2024-03-25T10:33:09;96845.19;;;10.46;45.82
76195;BME280;64964;48.694;21.206;2024-03-25T10:35:37;96782.53;;;9.98;45.96
76195;BME280;64964;48.694;21.206;2024-03-25T10:38:07;96839.19;;;10.31;46.21
76195;BME280;64964;48.694;21.206;2024-03-25T10:40:36;96786.41;;;9.96;46.31
76195;BME280;64964;48.694;21.206;2024-03-25T10:43:06;96835.13;;;10.28;46.14
76195;BME280;64964;48.694;21.206;2024-03-25T10:45:45;96845.94;;;10.40;46.13
76195;BME280;64964;48.694;21.206;2024-03-25T10:48:27;96847.38;;;10.42;46.00
76195;BME280;64964;48.694;21.206;2024-03-25T10:50:55;96841.47;;;10.40;46.32
76195;BME280;64964;48.694;21.206;2024-03-25T10:53:21;96842.16;;;10.56;45.60
76195;BME280;64964;48.694;21.206;2024-03-25T10:55:50;96834.66;;;10.59;45.84
76195;BME280;64964;48.694;21.206;2024-03-25T10:58:17;96840.44;;;11.03;45.54
76195;BME280;64964;48.694;21.206;2024-03-25T11:00:46;96825.63;;;11.08;46.00
76195;BME280;64964;48.694;21.206;2024-03-25T11:03:12;96827.47;;;11.21;45.05
76195;BME280;64964;48.694;21.206;2024-03-25T11:05:38;96836.81;;;11.37;44.65
76195;BME280;64964;48.694;21.206;2024-03-25T11:08:14;96832.78;;;11.34;44.53
76195;BME280;64964;48.694;21.206;2024-03-25T11:10:40;96830.53;;;11.38;44.53
76195;BME280;64964;48.694;21.206;2024-03-25T11:13:13;96824.81;;;11.41;44.53
76195;BME280;64964;48.694;21.206;2024-03-25T11:15:46;96834.59;;;11.40;44.11
76195;BME280;64964;48.694;21.206;2024-03-25T11:18:15;96837.84;;;11.36;44.33
76195;BME280;64964;48.694;21.206;2024-03-25T11:20:41;96843.34;;;11.21;44.07
76195;BME280;64964;48.694;21.206;2024-03-25T11:23:11;96852.69;;;11.10;44.59
76195;BME280;64964;48.694;21.206;2024-03-25T11:25:38;96842.91;;;11.04;45.90
76195;BME280;64964;48.694;21.206;2024-03-25T11:28:04;96844.72;;;10.97;46.11
76195;BME280;64964;48.694;21.206;2024-03-25T11:30:30;96852.25;;;10.93;46.73
76195;BME280;64964;48.694;21.206;2024-03-25T11:32:57;96839.19;;;10.79;47.26
76195;BME280;64964;48.694;21.206;2024-03-25T11:35:24;96848.94;;;10.78;47.30
76195;BME280;64964;48.694;21.206;2024-03-25T11:37:49;96855.03;;;10.72;47.54
76195;BME280;64964;48.694;21.206;2024-03-25T11:40:18;96851.97;;;10.68;48.49
76195;BME280;64964;48.694;21.206;2024-03-25T11:42:45;96831.97;;;10.53;47.95
76195;BME280;64964;48.694;21.206;2024-03-25T11:45:15;96815.44;;;10.31;49.18
76195;BME280;64964;48.694;21.206;2024-03-25T11:47:45;96849.22;;;10.48;49.96
76195;BME280;64964;48.694;21.206;2024-03-25T11:50:13;96854.50;;;10.48;49.43
76195;BME280;64964;48.694;21.206;2024-03-25T11:52:39;96862.47;;;10.55;49.77
76195;BME280;64964;48.694;21.206;2024-03-25T11:55:04;96842.38;;;10.54;49.12
76195;BME280;64964;48.694;21.206;2024-03-25T11:57:30;96848.47;;;10.61;49.51
76195;BME280;64964;48.694;21.206;2024-03-25T11:59:57;96854.59;;;10.62;50.09
76195;BME280;64964;48.694;21.206;2024-03-25T12:02:22;96849.91;;;10.64;49.82
76195;BME280;64964;48.694;21.206;2024-03-25T12:04:47;96846.66;;;10.68;50.90
76195;BME280;64964;48.694;21.206;2024-03-25T12:07:14;96828.41;;;10.80;50.25
76195;BME280;64964;48.694;21.206;2024-03-25T12:09:39;96838.25;;;11.13;49.01
76195;BME280;64964;48.694;21.206;2024-03-25T12:12:24;96833.38;;;11.36;49.38
76195;BME280;64964;48.694;21.206;2024-03-25T12:14:50;96834.81;;;11.52;49.04
76195;BME280;64964;48.694;21.206;2024-03-25T12:17:16;96809.94;;;11.53;47.59
76195;BME280;64964;48.694;21.206;2024-03-25T12:19:41;96828.50;;;11.66;46.93
76195;BME280;64964;48.694;21.206;2024-03-25T12:22:07;96830.50;;;11.58;46.21
76195;BME280;64964;48.694;21.206;2024-03-25T12:24:33;96825.44;;;11.50;46.93
76195;BME280;64964;48.694;21.206;2024-03-25T12:26:59;96828.28;;;11.55;46.24
76195;BME280;64964;48.694;21.206;2024-03-25T12:29:24;96834.81;;;11.59;47.14
76195;BME280;64964;48.694;21.206;2024-03-25T12:31:56;96830.50;;;11.58;46.41
76195;BME280;64964;48.694;21.206;2024-03-25T12:34:22;96828.28;;;11.55;47.17
76195;BME280;64964;48.694;21.206;2024-03-25T12:36:50;96819.94;;;11.58;46.28
76195;BME280;64964;48.694;21.206;2024-03-25T12:39:17;96826.06;;;11.58;47.16
76195;BME280;64964;48.694;21.206;2024-03-25T12:41:43;96814.22;;;11.61;47.07
76195;BME280;64964;48.694;21.206;2024-03-25T12:44:11;96807.50;;;11.65;47.54
76195;BME280;64964;48.694;21.206;2024-03-25T12:46:36;96818.91;;;11.85;46.99
76195;BME280;64964;48.694;21.206;2024-03-25T12:49:02;96818.91;;;11.92;46.85
76195;BME280;64964;48.694;21.206;2024-03-25T12:51:27;96815.84;;;11.68;46.65